createdAt,value
2022-10-22T00:00:56.242Z,20.22
2022-10-22T00:03:22.714Z,20.12
2022-10-22T00:05:49.983Z,20.16
2022-10-22T00:08:17.287Z,20.11
2022-10-22T00:10:43.748Z,20.07
2022-10-22T00:13:11.007Z,20.07
2022-10-22T00:15:37.433Z,20.11
2022-10-22T00:18:03.842Z,20.11
2022-10-22T00:20:30.245Z,20.12
2022-10-22T00:22:56.662Z,20.13
2022-10-22T00:25:23.898Z,20.12
2022-10-22T00:27:50.330Z,20.20
2022-10-22T00:30:17.645Z,20.16
2022-10-22T00:32:44.056Z,20.22
2022-10-22T00:35:11.325Z,20.18
2022-10-22T00:37:38.586Z,20.07
2022-10-22T00:40:05.038Z,20.10
2022-10-22T00:42:32.291Z,20.12
2022-10-22T00:44:59.520Z,20.15
2022-10-22T00:47:25.936Z,20.08
2022-10-22T00:49:53.218Z,20.18
2022-10-22T00:52:19.674Z,20.27
2022-10-22T00:54:46.072Z,20.29
2022-10-22T00:57:12.492Z,20.27
2022-10-22T00:59:38.895Z,20.28
2022-10-22T01:02:05.325Z,20.21
2022-10-22T01:04:32.576Z,20.19
2022-10-22T01:06:59.889Z,20.28
2022-10-22T01:09:27.131Z,20.22
2022-10-22T01:11:54.431Z,20.28
2022-10-22T01:14:21.144Z,20.27
2022-10-22T01:16:48.371Z,20.28
2022-10-22T01:19:14.792Z,20.27
2022-10-22T01:21:41.192Z,20.29
2022-10-22T01:24:08.486Z,20.30
2022-10-22T01:26:35.723Z,20.29
2022-10-22T01:29:03.029Z,20.27
2022-10-22T01:31:29.439Z,20.24
2022-10-22T01:33:55.841Z,20.26
2022-10-22T01:36:22.252Z,20.22
2022-10-22T01:38:49.529Z,20.26
2022-10-22T01:41:15.958Z,20.26
2022-10-22T01:43:43.281Z,20.27
2022-10-22T01:46:10.562Z,20.23
2022-10-22T01:48:37.807Z,20.20
2022-10-22T01:51:04.232Z,20.14
2022-10-22T01:53:31.614Z,20.22
2022-10-22T01:55:58.971Z,20.21
2022-10-22T01:58:26.196Z,20.19
2022-10-22T02:00:52.605Z,20.19
2022-10-22T02:03:22.873Z,20.15
2022-10-22T02:05:51.072Z,20.20
2022-10-22T02:08:18.421Z,20.15
2022-10-22T02:13:11.145Z,20.19
2022-10-22T02:15:38.403Z,20.16
2022-10-22T02:20:32.924Z,20.15
2022-10-22T02:22:59.329Z,20.10
2022-10-22T02:25:26.554Z,20.13
2022-10-22T02:27:53.814Z,20.13
2022-10-22T02:30:21.119Z,20.12
2022-10-22T02:32:47.582Z,20.12
2022-10-22T02:35:13.983Z,20.07
2022-10-22T02:37:41.211Z,20.12
2022-10-22T02:40:07.605Z,20.11
2022-10-22T02:42:34.819Z,20.12
2022-10-22T02:45:02.084Z,20.13
2022-10-22T02:47:29.305Z,20.20
2022-10-22T02:49:55.756Z,20.22
2022-10-22T02:52:22.994Z,20.20
2022-10-22T02:54:50.219Z,20.25
2022-10-22T02:57:16.679Z,20.28
2022-10-22T02:59:43.914Z,20.23
2022-10-22T03:02:10.457Z,20.23
2022-10-22T03:04:37.690Z,20.25
2022-10-22T03:07:06.778Z,20.25
2022-10-22T03:09:34.000Z,20.26
2022-10-22T03:12:01.214Z,20.24
2022-10-22T03:14:28.507Z,20.18
2022-10-22T03:16:55.719Z,20.21
2022-10-22T03:19:22.178Z,20.15
2022-10-22T03:21:49.402Z,20.20
2022-10-22T03:24:15.810Z,20.13
2022-10-22T03:26:42.283Z,20.11
2022-10-22T03:29:09.552Z,20.11
2022-10-22T03:31:36.032Z,20.14
2022-10-22T03:34:02.445Z,20.14
2022-10-22T03:36:28.915Z,20.13
2022-10-22T03:38:56.171Z,20.14
2022-10-22T03:41:23.501Z,20.12
2022-10-22T03:43:51.793Z,20.13
2022-10-22T03:46:18.188Z,20.11
2022-10-22T03:48:45.418Z,20.17
2022-10-22T03:51:12.613Z,20.15
2022-10-22T03:53:39.034Z,20.13
2022-10-22T03:56:05.431Z,20.20
2022-10-22T03:58:31.893Z,20.23
2022-10-22T04:00:58.382Z,20.24
2022-10-22T04:03:25.671Z,20.25
2022-10-22T04:05:52.884Z,20.26
2022-10-22T04:08:19.286Z,20.23
2022-10-22T04:10:48.901Z,20.27
2022-10-22T04:13:15.325Z,20.25
2022-10-22T04:18:17.601Z,20.25
2022-10-22T04:20:45.860Z,20.21
2022-10-22T04:23:13.069Z,20.24
2022-10-22T04:25:39.526Z,20.21
2022-10-22T04:28:06.823Z,20.21
2022-10-22T04:30:33.230Z,20.19
2022-10-22T04:33:01.486Z,20.21
2022-10-22T04:35:29.765Z,20.21
2022-10-22T04:37:56.226Z,20.21
2022-10-22T04:40:24.498Z,20.22
2022-10-22T04:42:52.782Z,20.18
2022-10-22T04:45:19.244Z,20.20
2022-10-22T04:50:12.899Z,20.21
2022-10-22T04:52:39.292Z,20.21
2022-10-22T04:55:05.719Z,20.18
2022-10-22T04:57:32.086Z,20.26
2022-10-22T04:59:58.418Z,20.22
2022-10-22T05:02:24.830Z,20.19
2022-10-22T05:04:51.271Z,20.14
2022-10-22T05:07:17.728Z,20.10
2022-10-22T05:09:44.914Z,20.13
2022-10-22T05:12:11.279Z,20.13
2022-10-22T05:14:41.398Z,20.20
2022-10-22T05:17:10.369Z,20.22
2022-10-22T05:19:36.704Z,20.27
2022-10-22T05:22:03.920Z,20.29
2022-10-22T05:24:33.069Z,20.28
2022-10-22T05:27:02.254Z,20.32
2022-10-22T05:29:31.387Z,20.33
2022-10-22T05:31:57.892Z,20.33
2022-10-22T05:34:25.114Z,20.32
2022-10-22T05:36:51.585Z,20.34
2022-10-22T05:39:17.985Z,20.34
2022-10-22T05:41:45.177Z,20.35
2022-10-22T05:44:13.487Z,20.35
2022-10-22T05:46:40.709Z,20.37
2022-10-22T05:49:07.986Z,20.35
2022-10-22T05:51:34.376Z,20.34
2022-10-22T05:54:01.651Z,20.32
2022-10-22T05:56:28.002Z,20.32
2022-10-22T05:58:54.550Z,20.30
2022-10-22T06:01:21.797Z,20.32
2022-10-22T06:03:48.268Z,20.32
2022-10-22T06:06:14.683Z,20.34
2022-10-22T06:08:41.140Z,20.35
2022-10-22T06:11:08.488Z,20.34
2022-10-22T06:13:34.906Z,20.39
2022-10-22T06:16:02.200Z,20.32
2022-10-22T06:18:28.615Z,20.30
2022-10-22T06:20:55.069Z,20.27
2022-10-22T06:23:21.496Z,20.28
2022-10-22T06:25:48.730Z,20.21
2022-10-22T06:28:15.249Z,20.22
2022-10-22T06:30:44.275Z,20.15
2022-10-22T06:33:13.788Z,20.11
2022-10-22T06:35:40.219Z,20.11
2022-10-22T06:38:07.615Z,20.08
2022-10-22T06:40:34.052Z,20.10
2022-10-22T06:43:01.414Z,20.07
2022-10-22T06:45:28.699Z,20.13
2022-10-22T06:47:55.124Z,20.13
2022-10-22T06:50:21.584Z,20.13
2022-10-22T06:52:48.924Z,20.10
2022-10-22T06:55:15.381Z,20.13
2022-10-22T06:57:43.282Z,20.15
2022-10-22T07:00:10.897Z,20.11
2022-10-22T07:02:37.325Z,20.06
2022-10-22T07:05:04.664Z,20.04
2022-10-22T07:07:31.938Z,20.07
2022-10-22T07:09:59.280Z,20.10
2022-10-22T07:12:26.661Z,20.09
2022-10-22T07:14:53.976Z,20.07
2022-10-22T07:17:21.386Z,20.07
2022-10-22T07:19:51.171Z,20.07
2022-10-22T07:22:18.517Z,20.07
2022-10-22T07:24:45.906Z,20.05
2022-10-22T07:27:13.239Z,20.09
2022-10-22T07:29:40.585Z,20.05
2022-10-22T07:32:08.202Z,20.07
2022-10-22T07:34:38.445Z,20.08
2022-10-22T07:37:07.179Z,20.08
2022-10-22T07:39:34.752Z,20.08
2022-10-22T07:42:01.220Z,20.07
2022-10-22T07:44:27.645Z,20.08
2022-10-22T07:46:55.453Z,20.09
2022-10-22T07:49:23.322Z,20.10
2022-10-22T07:51:50.735Z,20.10
2022-10-22T07:54:17.196Z,20.13
2022-10-22T07:56:44.544Z,20.19
2022-10-22T07:59:11.915Z,20.02
2022-10-22T08:01:38.406Z,19.85
2022-10-22T08:04:05.828Z,19.73
2022-10-22T08:06:33.188Z,19.67
2022-10-22T08:09:00.590Z,19.68
2022-10-22T08:11:27.999Z,19.60
2022-10-22T08:13:54.657Z,19.46
2022-10-22T08:16:21.112Z,19.52
2022-10-22T08:18:47.549Z,19.57
2022-10-22T08:21:14.915Z,19.51
2022-10-22T08:23:41.390Z,19.56
2022-10-22T08:26:07.870Z,19.48
2022-10-22T08:28:34.325Z,19.41
2022-10-22T08:31:00.816Z,19.35
2022-10-22T08:33:28.189Z,19.22
2022-10-22T08:35:54.640Z,19.07
2022-10-22T08:38:21.098Z,19.12
2022-10-22T08:43:20.854Z,19.20
2022-10-22T08:45:48.219Z,19.24
2022-10-22T08:48:15.592Z,19.22
2022-10-22T08:50:42.956Z,19.27
2022-10-22T08:53:09.417Z,19.15
2022-10-22T08:55:37.414Z,19.28
2022-10-22T08:58:04.067Z,19.36
2022-10-22T09:00:31.444Z,19.44
2022-10-22T09:02:57.954Z,19.51
2022-10-22T09:05:24.394Z,19.54
2022-10-22T09:07:51.805Z,19.59
2022-10-22T09:10:19.277Z,19.55
2022-10-22T09:12:45.750Z,19.54
2022-10-22T09:15:12.382Z,19.49
2022-10-22T09:17:40.051Z,19.35
2022-10-22T09:20:07.756Z,19.35
2022-10-22T09:25:06.776Z,19.50
2022-10-22T09:27:33.243Z,19.50
2022-10-22T09:29:59.822Z,19.31
2022-10-22T09:32:26.266Z,19.53
2022-10-22T09:34:52.741Z,19.45
2022-10-22T09:37:20.138Z,19.29
2022-10-22T09:39:47.552Z,19.36
2022-10-22T09:42:14.041Z,19.44
2022-10-22T09:44:43.717Z,19.49
2022-10-22T09:47:12.777Z,19.58
2022-10-22T09:49:40.148Z,19.58
2022-10-22T09:52:06.611Z,19.54
2022-10-22T09:54:33.073Z,19.57
2022-10-22T09:56:59.539Z,19.50
2022-10-22T09:59:25.974Z,19.67
2022-10-22T10:01:52.423Z,19.77
2022-10-22T10:04:18.900Z,19.81
2022-10-22T10:06:45.362Z,19.28
2022-10-22T10:09:11.874Z,18.75
2022-10-22T10:11:38.392Z,19.22
2022-10-22T10:14:04.872Z,19.53
2022-10-22T10:16:31.333Z,19.49
2022-10-22T10:18:57.839Z,19.26
2022-10-22T10:21:24.284Z,19.35
2022-10-22T10:23:50.746Z,19.46
2022-10-22T10:26:17.233Z,19.48
2022-10-22T10:28:43.702Z,19.58
2022-10-22T10:31:10.185Z,19.55
2022-10-22T10:33:37.608Z,19.56
2022-10-22T10:36:04.072Z,19.57
2022-10-22T10:38:30.529Z,19.63
2022-10-22T10:40:57.006Z,19.64
2022-10-22T10:43:24.391Z,19.62
2022-10-22T10:45:55.510Z,19.48
2022-10-22T10:48:23.282Z,19.44
2022-10-22T10:50:49.744Z,19.50
2022-10-22T10:53:16.213Z,19.44
2022-10-22T10:55:42.842Z,19.46
2022-10-22T10:58:09.559Z,19.54
2022-10-22T11:00:36.046Z,19.08
2022-10-22T11:03:02.527Z,18.39
2022-10-22T11:05:29.900Z,18.80
2022-10-22T11:07:56.811Z,19.12
2022-10-22T11:10:23.459Z,19.13
2022-10-22T11:12:50.916Z,19.07
2022-10-22T11:15:18.318Z,19.04
2022-10-22T11:17:44.776Z,19.04
2022-10-22T11:20:12.166Z,18.98
2022-10-22T11:22:44.482Z,19.02
2022-10-22T11:25:18.070Z,18.95
2022-10-22T11:27:44.718Z,18.92
2022-10-22T11:30:12.217Z,18.93
2022-10-22T11:32:38.851Z,18.98
2022-10-22T11:35:05.511Z,19.00
2022-10-22T11:37:32.225Z,18.98
2022-10-22T11:40:00.085Z,18.94
2022-10-22T11:42:26.809Z,18.96
2022-10-22T11:44:53.466Z,18.97
2022-10-22T11:47:19.978Z,18.89
2022-10-22T11:49:47.788Z,18.95
2022-10-22T11:52:15.243Z,18.97
2022-10-22T11:54:41.766Z,18.98
2022-10-22T11:57:09.324Z,18.92
2022-10-22T11:59:36.098Z,18.90
2022-10-22T12:02:03.020Z,19.00
2022-10-22T12:04:30.543Z,18.95
2022-10-22T12:06:57.074Z,18.91
2022-10-22T12:09:24.696Z,18.89
2022-10-22T12:11:51.205Z,18.87
2022-10-22T12:14:18.546Z,18.88
2022-10-22T12:17:01.462Z,18.93
2022-10-22T12:19:29.167Z,18.94
2022-10-22T12:21:56.641Z,18.84
2022-10-22T12:24:24.136Z,18.87
2022-10-22T12:26:51.743Z,18.85
2022-10-22T12:29:19.226Z,18.83
2022-10-22T12:31:45.663Z,18.83
2022-10-22T12:34:12.220Z,18.89
2022-10-22T12:36:38.826Z,18.87
2022-10-22T12:39:05.345Z,18.81
2022-10-22T12:41:31.941Z,18.81
2022-10-22T12:43:59.526Z,18.83
2022-10-22T12:46:25.961Z,18.76
2022-10-22T12:48:52.515Z,18.80
2022-10-22T12:51:19.993Z,18.75
2022-10-22T12:53:47.603Z,18.75
2022-10-22T12:56:14.129Z,18.69
2022-10-22T12:58:41.655Z,18.73
2022-10-22T13:01:08.482Z,18.74
2022-10-22T13:03:34.981Z,18.75
2022-10-22T13:06:01.537Z,18.76
2022-10-22T13:08:28.097Z,18.77
2022-10-22T13:10:54.598Z,18.75
2022-10-22T13:13:21.106Z,18.76
2022-10-22T13:15:47.614Z,18.78
2022-10-22T13:18:14.982Z,18.80
2022-10-22T13:20:41.433Z,18.76
2022-10-22T13:23:07.949Z,18.74
2022-10-22T13:25:35.413Z,18.81
2022-10-22T13:28:02.885Z,18.84
2022-10-22T13:30:30.460Z,18.86
2022-10-22T13:32:57.872Z,18.90
2022-10-22T13:35:24.296Z,18.82
2022-10-22T13:37:50.856Z,18.86
2022-10-22T13:40:17.533Z,18.92
2022-10-22T13:42:44.378Z,18.97
2022-10-22T13:45:11.157Z,19.03
2022-10-22T13:47:38.680Z,18.97
2022-10-22T13:50:05.242Z,19.00
2022-10-22T13:52:32.823Z,18.99
2022-10-22T13:54:59.758Z,18.95
2022-10-22T13:57:27.421Z,19.01
2022-10-22T13:59:53.912Z,19.08
2022-10-22T14:02:21.367Z,19.08
2022-10-22T14:04:48.987Z,19.07
2022-10-22T14:07:16.510Z,19.01
2022-10-22T14:09:44.010Z,19.07
2022-10-22T14:12:11.546Z,19.06
2022-10-22T14:14:38.195Z,18.98
2022-10-22T14:17:05.874Z,18.99
2022-10-22T14:19:32.621Z,19.04
2022-10-22T14:21:59.279Z,19.10
2022-10-22T14:24:25.865Z,19.15
2022-10-22T14:26:53.296Z,19.13
2022-10-22T14:29:20.036Z,19.11
2022-10-22T14:31:46.555Z,19.10
2022-10-22T14:34:13.942Z,19.11
2022-10-22T14:36:41.419Z,19.10
2022-10-22T14:39:08.103Z,18.99
2022-10-22T14:41:35.571Z,19.05
2022-10-22T14:44:02.048Z,19.02
2022-10-22T14:46:29.647Z,19.11
2022-10-22T14:48:56.099Z,19.13
2022-10-22T14:51:22.549Z,19.16
2022-10-22T14:53:49.054Z,19.15
2022-10-22T14:56:15.590Z,19.25
2022-10-22T14:58:42.238Z,19.15
2022-10-22T15:01:08.772Z,19.12
2022-10-22T15:03:36.206Z,19.15
2022-10-22T15:06:03.581Z,19.24
2022-10-22T15:08:30.078Z,19.26
2022-10-22T15:10:56.848Z,19.35
2022-10-22T15:13:24.245Z,19.34
2022-10-22T15:15:51.694Z,19.31
2022-10-22T15:18:18.291Z,19.31
2022-10-22T15:20:44.808Z,19.37
2022-10-22T15:23:11.292Z,19.25
2022-10-22T15:25:38.716Z,19.19
2022-10-22T15:28:09.825Z,19.34
2022-10-22T15:30:36.551Z,19.20
2022-10-22T15:33:03.412Z,19.30
2022-10-22T15:35:30.016Z,19.33
2022-10-22T15:37:57.453Z,19.20
2022-10-22T15:40:23.956Z,19.26
2022-10-22T15:42:50.465Z,19.26
2022-10-22T15:45:17.068Z,19.34
2022-10-22T15:47:47.232Z,19.32
2022-10-22T15:50:14.516Z,19.35
2022-10-22T15:52:40.970Z,19.41
2022-10-22T15:55:07.534Z,19.26
2022-10-22T15:57:34.957Z,19.17
2022-10-22T16:00:01.421Z,19.18
2022-10-22T16:02:28.831Z,19.21
2022-10-22T16:04:55.327Z,19.15
2022-10-22T16:07:23.976Z,19.16
2022-10-22T16:09:52.242Z,19.22
2022-10-22T16:12:19.830Z,19.14
2022-10-22T16:14:47.301Z,19.19
2022-10-22T16:17:14.723Z,19.15
2022-10-22T16:19:41.228Z,19.10
2022-10-22T16:22:07.701Z,19.45
2022-10-22T16:24:34.158Z,19.59
2022-10-22T16:27:00.626Z,19.74
2022-10-22T16:29:27.383Z,19.69
2022-10-22T16:31:54.776Z,19.72
2022-10-22T16:34:21.413Z,19.73
2022-10-22T16:36:48.917Z,19.70
2022-10-22T16:39:15.446Z,19.74
2022-10-22T16:41:42.883Z,19.81
2022-10-22T16:44:09.355Z,19.74
2022-10-22T16:46:35.818Z,20.00
2022-10-22T16:49:03.210Z,19.95
2022-10-22T16:51:30.668Z,19.94
2022-10-22T16:53:57.098Z,19.87
2022-10-22T16:56:24.526Z,19.90
2022-10-22T16:58:51.004Z,19.90
2022-10-22T17:01:18.198Z,19.88
2022-10-22T17:03:45.813Z,19.85
2022-10-22T17:06:12.311Z,19.83
2022-10-22T17:08:38.822Z,19.84
2022-10-22T17:11:06.279Z,19.84
2022-10-22T17:13:32.760Z,19.89
2022-10-22T17:16:00.428Z,19.92
2022-10-22T17:18:27.865Z,19.84
2022-10-22T17:20:55.270Z,19.90
2022-10-22T17:23:22.749Z,19.85
2022-10-22T17:25:50.184Z,19.91
2022-10-22T17:28:16.695Z,19.89
2022-10-22T17:30:44.154Z,19.87
2022-10-22T17:33:10.626Z,20.03
2022-10-22T17:35:38.023Z,19.99
2022-10-22T17:38:06.197Z,19.95
2022-10-22T17:40:33.643Z,19.95
2022-10-22T17:43:00.092Z,19.89
2022-10-22T17:45:27.535Z,19.90
2022-10-22T17:47:54.014Z,19.88
2022-10-22T17:50:20.509Z,19.90
2022-10-22T17:52:47.005Z,19.87
2022-10-22T17:55:14.474Z,19.89
2022-10-22T17:57:40.943Z,19.88
2022-10-22T18:00:08.081Z,19.87
2022-10-22T18:02:34.557Z,19.88
2022-10-22T18:05:01.963Z,19.90
2022-10-22T18:07:28.425Z,19.87
2022-10-22T18:09:55.826Z,19.85
2022-10-22T18:12:22.374Z,19.87
2022-10-22T18:14:49.779Z,19.85
2022-10-22T18:17:16.478Z,19.85
2022-10-22T18:19:42.974Z,19.85
2022-10-22T18:22:09.457Z,19.86
2022-10-22T18:24:35.948Z,19.87
2022-10-22T18:27:03.482Z,19.88
2022-10-22T18:29:30.106Z,19.87
2022-10-22T18:31:56.572Z,19.90
2022-10-22T18:34:24.023Z,19.88
2022-10-22T18:36:50.647Z,19.88
2022-10-22T18:39:18.049Z,19.87
2022-10-22T18:41:44.565Z,19.90
2022-10-22T18:44:11.057Z,19.85
2022-10-22T18:46:38.493Z,19.86
2022-10-22T18:49:05.107Z,19.90
2022-10-22T18:51:31.637Z,19.87
2022-10-22T18:54:05.471Z,19.87
2022-10-22T18:56:37.921Z,19.87
2022-10-22T18:59:05.350Z,19.87
2022-10-22T19:01:32.791Z,19.88
2022-10-22T19:04:00.390Z,19.90
2022-10-22T19:06:27.804Z,19.89
2022-10-22T19:08:54.313Z,19.87
2022-10-22T19:11:21.778Z,19.87
2022-10-22T19:13:48.250Z,19.83
2022-10-22T19:16:14.719Z,19.81
2022-10-22T19:18:41.172Z,19.81
2022-10-22T19:21:07.649Z,19.83
2022-10-22T19:23:35.114Z,19.82
2022-10-22T19:26:02.707Z,19.83
2022-10-22T19:28:29.175Z,19.84
2022-10-22T19:30:55.625Z,19.85
2022-10-22T19:33:22.120Z,19.85
2022-10-22T19:35:49.543Z,19.86
2022-10-22T19:38:16.030Z,19.80
2022-10-22T19:40:42.498Z,19.78
2022-10-22T19:43:09.085Z,19.83
2022-10-22T19:45:35.560Z,19.79
2022-10-22T19:48:02.987Z,19.81
2022-10-22T19:50:29.451Z,19.84
2022-10-22T19:52:56.827Z,19.83
2022-10-22T19:55:23.339Z,19.80
2022-10-22T19:57:50.732Z,19.80
2022-10-22T20:00:18.129Z,19.82
2022-10-22T20:02:45.519Z,19.83
2022-10-22T20:05:12.985Z,19.82
2022-10-22T20:07:39.686Z,19.82
2022-10-22T20:10:06.373Z,19.82
2022-10-22T20:12:32.842Z,19.81
2022-10-22T20:15:00.312Z,19.78
2022-10-22T20:17:27.666Z,19.96
2022-10-22T20:19:55.046Z,20.12
2022-10-22T20:22:21.512Z,20.40
2022-10-22T20:24:47.969Z,20.43
2022-10-22T20:27:15.378Z,20.51
2022-10-22T20:29:41.822Z,20.61
2022-10-22T20:32:09.164Z,20.50
2022-10-22T20:34:36.634Z,20.51
2022-10-22T20:37:03.081Z,20.50
2022-10-22T20:39:30.438Z,20.69
2022-10-22T20:41:57.130Z,20.64
2022-10-22T20:44:23.667Z,20.62
2022-10-22T20:46:51.082Z,21.12
2022-10-22T20:49:17.567Z,21.19
2022-10-22T20:51:44.022Z,21.28
2022-10-22T20:54:11.376Z,21.28
2022-10-22T20:56:37.833Z,21.18
2022-10-22T20:59:04.338Z,21.36
2022-10-22T21:01:31.753Z,21.34
2022-10-22T21:03:58.243Z,21.49
2022-10-22T21:06:24.697Z,21.25
2022-10-22T21:08:51.265Z,21.31
2022-10-22T21:11:18.667Z,21.31
2022-10-22T21:13:45.183Z,21.62
2022-10-22T21:16:11.608Z,21.15
2022-10-22T21:18:38.923Z,21.00
2022-10-22T21:21:05.354Z,21.01
2022-10-22T21:23:32.659Z,21.06
2022-10-22T21:26:01.829Z,21.24
2022-10-22T21:28:28.267Z,20.88
2022-10-22T21:30:55.501Z,20.80
2022-10-22T21:33:21.996Z,20.73
2022-10-22T21:35:48.438Z,20.71
2022-10-22T21:38:15.796Z,20.76
2022-10-22T21:40:42.253Z,20.78
2022-10-22T21:43:08.735Z,20.74
2022-10-22T21:48:07.428Z,20.71
2022-10-22T21:50:34.787Z,20.72
2022-10-22T21:53:01.218Z,20.70
2022-10-22T21:55:28.542Z,20.71
2022-10-22T21:57:54.968Z,20.66
2022-10-22T22:00:22.272Z,20.68
2022-10-22T22:02:49.561Z,20.67
2022-10-22T22:05:16.862Z,20.74
2022-10-22T22:07:43.236Z,20.72
2022-10-22T22:10:10.487Z,20.72
2022-10-22T22:12:36.897Z,20.73
2022-10-22T22:15:03.375Z,20.69
2022-10-22T22:17:30.615Z,20.69
2022-10-22T22:19:58.867Z,20.68
2022-10-22T22:22:27.162Z,20.69
2022-10-22T22:24:53.571Z,20.64
2022-10-22T22:29:51.436Z,20.67
2022-10-22T22:32:18.742Z,20.66
2022-10-22T22:34:47.038Z,20.66
2022-10-22T22:37:13.481Z,20.64
2022-10-22T22:39:40.751Z,20.64
2022-10-22T22:42:07.145Z,20.63
2022-10-22T22:44:33.600Z,20.62
2022-10-22T22:47:01.863Z,20.66
2022-10-22T22:49:28.316Z,20.64
2022-10-22T22:51:56.568Z,20.63
2022-10-22T22:54:22.971Z,20.65
2022-10-22T22:56:51.243Z,20.63
2022-10-22T22:59:20.344Z,20.68
2022-10-22T23:01:49.560Z,20.70
2022-10-22T23:04:18.780Z,20.71
2022-10-22T23:06:47.953Z,20.70
2022-10-22T23:09:14.451Z,20.66
2022-10-22T23:11:42.812Z,20.67
2022-10-22T23:14:10.021Z,20.66
2022-10-22T23:16:36.499Z,20.66
2022-10-22T23:19:02.881Z,20.69
2022-10-22T23:21:29.263Z,20.71
2022-10-22T23:23:55.698Z,20.71
2022-10-22T23:26:22.127Z,20.67
2022-10-22T23:28:48.533Z,20.65
2022-10-22T23:31:14.928Z,20.61
2022-10-22T23:33:44.058Z,20.64
2022-10-22T23:36:11.290Z,20.62
2022-10-22T23:38:38.564Z,20.62
2022-10-22T23:41:04.968Z,20.61
2022-10-22T23:43:31.372Z,20.62
2022-10-22T23:45:57.742Z,20.59
2022-10-22T23:51:10.095Z,20.62
2022-10-22T23:53:37.286Z,20.60
2022-10-22T23:56:04.559Z,20.63
2022-10-22T23:58:30.874Z,20.62
